Aérodrome :
LOGIN :

S'inscrire | Disclaimer

   EN    FR    IT 

 










Légende :    VFR   VFR Marginal   IFR   IFR Intensif   IFR Très Intensif
Visi : 
Plafond : 
>= 8 km
>= 3000ft
5 à 8 km
1000 à 3000 ft
1500m à 5 km
500 à 1000 ft
800 à 1500m
200 à 500 ft
< 800m
< 200 ft
Symboles :   Orages  Brouillard  Fortes neiges  Fortes précipitations  Vent > 20 kt
SIGMETs :   Divers  Orages  Givrage  Turbulence  Onde Orograph.  Cendres Volcan.






- Altitude de l'aérodrome : 15 ft
- Code IATA : FCO


LIRF - Roma Leonardo da Vinci Fiumicino

DERNIER METAR :
  • 290320Z 06002KT 8000 R16L/P1500N R16R/P1500N R25/0350V0750D R34R/P1500N MIFG NSC 09/09 Q1014 TEMPO 3000 BR

METARs EXPIRÉS :
  • 290220Z 08002KT 9000 NSC 11/10 Q1014 NOSIG
  • 290150Z 08002KT 9000 NSC 11/10 Q1014 NOSIG
  • 290120Z VRB02KT 8000 NSC 12/10 Q1014 NOSIG
  • 290050Z 18001KT 9000 -RA FEW050 12/10 Q1014 NOSIG

TAF TAF LIRF
Valide du 29 à 00h jusqu'au 30 à 06h UTC


282300Z 2900/3006 VRB05KT 9999 SCT020
TEMPO 2902/2906 3000 BR
BECMG 2909/2911 23010KT
BECMG 2916/2918 VRB05KT
TEMPO 3000/3006 1500 BR



MET'MAP, la Météo Aéronautique d'un coup d'oeil ! - Copyright ORBIFLY Décembre 2007 - Disclaimer

ORBIFLY MET'MAP TEAM :

Programmation & Développement : Alexandra Zaïnal
Sur une idée originale de : Baudouin d'Aumeries
Assistance à la programmation : Marc-Olivier Méhu
Soutien technique & logistique : Manuel Goepfert

Contact : metmap@orbifly.com




SOURCES & CREDITS :

   NOAA